createdAt,value
2019-05-26T00:00:38.021Z,18.20
2019-05-26T00:04:46.894Z,18.20
2019-05-26T00:08:55.350Z,18.20
2019-05-26T00:13:03.997Z,18.20
2019-05-26T00:17:12.410Z,18.20
2019-05-26T00:21:20.832Z,18.20
2019-05-26T00:25:29.552Z,18.20
2019-05-26T00:29:38.065Z,18.20
2019-05-26T00:33:46.417Z,18.20
2019-05-26T00:37:54.987Z,18.20
2019-05-26T00:42:03.741Z,18.10
2019-05-26T00:46:12.126Z,18.10
2019-05-26T00:50:20.566Z,18.10
2019-05-26T00:54:28.990Z,18.10
2019-05-26T00:58:37.557Z,18.10
2019-05-26T01:02:45.863Z,18.00
2019-05-26T01:06:55.098Z,18.00
2019-05-26T01:11:05.181Z,17.90
2019-05-26T01:15:14.735Z,17.90
2019-05-26T01:19:24.382Z,18.00
2019-05-26T01:23:32.989Z,17.90
2019-05-26T01:27:41.604Z,17.80
2019-05-26T01:31:50.191Z,17.80
2019-05-26T01:35:58.810Z,17.80
2019-05-26T01:40:08.385Z,17.70
2019-05-26T01:44:17.175Z,17.70
2019-05-26T01:48:25.869Z,17.70
2019-05-26T01:52:34.389Z,17.70
2019-05-26T01:56:43.264Z,17.60
2019-05-26T02:00:52.075Z,17.60
2019-05-26T02:05:00.619Z,17.60
2019-05-26T02:09:11.098Z,17.60
2019-05-26T02:13:19.845Z,17.50
2019-05-26T02:17:28.627Z,17.50
2019-05-26T02:21:40.048Z,17.50
2019-05-26T02:25:48.672Z,17.50
2019-05-26T02:29:57.956Z,17.50
2019-05-26T02:34:06.777Z,17.50
2019-05-26T02:38:15.644Z,17.50
2019-05-26T02:42:24.559Z,17.50
2019-05-26T02:46:34.323Z,17.50
2019-05-26T02:50:43.683Z,17.60
2019-05-26T02:54:52.294Z,17.60
2019-05-26T02:59:00.950Z,17.60
2019-05-26T03:03:09.793Z,17.60
2019-05-26T03:07:18.468Z,17.60
2019-05-26T03:11:27.054Z,17.60
2019-05-26T03:15:36.551Z,17.70
2019-05-26T03:19:45.104Z,17.80
2019-05-26T03:23:54.645Z,17.80
2019-05-26T03:28:03.576Z,17.80
2019-05-26T03:32:12.424Z,17.80
2019-05-26T03:36:21.201Z,17.80
2019-05-26T03:40:30.175Z,17.80
2019-05-26T03:44:39.904Z,17.80
2019-05-26T03:48:48.826Z,17.80
2019-05-26T03:52:57.484Z,17.80
2019-05-26T03:57:06.269Z,17.80
2019-05-26T04:01:15.731Z,17.80
2019-05-26T04:05:24.717Z,17.90
2019-05-26T04:09:33.306Z,17.90
2019-05-26T04:13:42.713Z,17.80
2019-05-26T04:17:51.540Z,17.90
2019-05-26T04:22:00.237Z,17.80
2019-05-26T04:26:08.797Z,17.80
2019-05-26T04:30:17.571Z,17.80
2019-05-26T04:34:27.508Z,17.80
2019-05-26T04:38:36.453Z,17.80
2019-05-26T04:42:44.910Z,17.70
2019-05-26T04:46:53.600Z,17.80
2019-05-26T04:51:02.620Z,17.70
2019-05-26T04:55:11.272Z,17.80
2019-05-26T04:59:20.085Z,17.80
2019-05-26T05:03:28.693Z,17.80
2019-05-26T05:07:37.264Z,17.80
2019-05-26T05:11:45.703Z,17.80
2019-05-26T05:15:54.812Z,17.90
2019-05-26T05:20:03.315Z,17.90
2019-05-26T05:24:11.985Z,18.10
2019-05-26T05:28:20.591Z,18.20
2019-05-26T05:32:32.709Z,18.30
2019-05-26T05:36:41.500Z,18.40
2019-05-26T05:40:59.101Z,18.50
2019-05-26T05:45:00.314Z,18.70
2019-05-26T05:49:08.930Z,18.60
2019-05-26T05:53:18.097Z,18.70
2019-05-26T05:57:26.612Z,18.80
2019-05-26T06:01:35.513Z,18.90
2019-05-26T06:05:44.003Z,19.00
2019-05-26T06:09:52.605Z,19.00
2019-05-26T06:14:01.911Z,19.30
2019-05-26T06:18:10.448Z,19.30
2019-05-26T06:22:21.169Z,19.30
2019-05-26T06:26:29.669Z,19.30
2019-05-26T06:30:39.307Z,19.40
2019-05-26T06:34:47.775Z,19.60
2019-05-26T06:38:56.315Z,19.80
2019-05-26T06:43:04.796Z,19.80
2019-05-26T06:47:14.491Z,19.90
2019-05-26T06:51:22.938Z,20.10
2019-05-26T06:55:31.378Z,20.20
2019-05-26T06:59:39.896Z,20.40
2019-05-26T07:03:48.325Z,20.50
2019-05-26T07:07:56.998Z,20.50
2019-05-26T07:12:05.613Z,20.70
2019-05-26T07:16:14.516Z,20.80
2019-05-26T07:20:22.981Z,21.00
2019-05-26T07:24:31.532Z,21.10
2019-05-26T07:28:40.597Z,21.30
2019-05-26T07:32:49.705Z,21.40
2019-05-26T07:36:58.165Z,21.70
2019-05-26T09:20:19.156Z,23.40
2019-05-26T09:24:27.851Z,24.10
2019-05-26T09:28:36.640Z,24.50
2019-05-26T09:32:45.453Z,24.60
2019-05-26T09:36:57.070Z,24.40
2019-05-26T09:41:04.793Z,24.90
2019-05-26T09:45:14.598Z,25.10
2019-05-26T09:49:21.800Z,25.50
2019-05-26T09:53:30.124Z,24.20
2019-05-26T09:57:38.833Z,23.80
2019-05-26T10:01:47.392Z,23.70
2019-05-26T10:05:56.617Z,24.10
2019-05-26T10:10:05.452Z,24.20
2019-05-26T10:14:14.150Z,24.80
2019-05-26T10:18:22.565Z,24.70
2019-05-26T10:22:31.201Z,24.50
2019-05-26T10:26:41.066Z,25.10
2019-05-26T10:30:49.510Z,25.40
2019-05-26T10:34:58.917Z,24.90
2019-05-26T10:39:09.378Z,25.60
2019-05-26T10:43:17.981Z,25.80
2019-05-26T10:47:26.569Z,26.10
2019-05-26T10:51:35.182Z,25.80
2019-05-26T10:55:43.610Z,25.60
2019-05-26T10:59:52.071Z,26.70
2019-05-26T11:04:00.473Z,27.90
2019-05-26T11:08:08.947Z,27.80
2019-05-26T11:12:17.373Z,27.80
2019-05-26T11:16:26.166Z,27.30
2019-05-26T11:20:34.807Z,27.30
2019-05-26T11:24:43.251Z,27.20
2019-05-26T11:28:51.663Z,26.70
2019-05-26T11:33:00.041Z,26.90
2019-05-26T11:37:09.458Z,27.30
2019-05-26T11:41:16.783Z,28.00
2019-05-26T11:45:25.287Z,26.80
2019-05-26T11:49:33.753Z,27.20
2019-05-26T11:53:42.136Z,27.80
2019-05-26T11:57:51.044Z,27.30
2019-05-26T12:01:59.443Z,27.30
2019-05-26T12:06:07.918Z,27.70
2019-05-26T12:10:16.313Z,28.00
2019-05-26T12:14:34.139Z,28.80
2019-05-26T12:18:35.135Z,28.10
2019-05-26T12:22:43.619Z,26.90
2019-05-26T12:26:52.110Z,27.50
2019-05-26T12:31:00.796Z,28.20
2019-05-26T12:35:09.494Z,28.70
2019-05-26T12:39:18.037Z,28.40
2019-05-26T12:43:26.486Z,27.70
2019-05-26T12:47:34.924Z,27.00
2019-05-26T12:51:43.471Z,26.70
2019-05-26T12:55:52.246Z,26.90
2019-05-26T13:00:00.815Z,26.20
2019-05-26T13:04:10.211Z,26.30
2019-05-26T13:08:18.900Z,25.80
2019-05-26T13:12:27.532Z,25.60
2019-05-26T13:16:36.217Z,25.30
2019-05-26T13:20:44.765Z,25.20
2019-05-26T13:24:53.333Z,25.20
2019-05-26T13:29:01.821Z,25.10
2019-05-26T13:33:10.296Z,24.80
2019-05-26T13:37:19.118Z,24.70
2019-05-26T13:41:27.581Z,24.70
2019-05-26T13:45:36.082Z,24.40
2019-05-26T13:49:44.908Z,24.20
2019-05-26T13:53:53.452Z,23.90
2019-05-26T13:58:01.880Z,23.90
2019-05-26T14:02:10.362Z,24.00
2019-05-26T14:06:19.183Z,23.90
2019-05-26T14:10:36.128Z,24.20
2019-05-26T14:14:44.741Z,24.30
2019-05-26T14:18:53.969Z,24.30
2019-05-26T14:23:02.469Z,24.00
2019-05-26T14:27:13.385Z,23.80
2019-05-26T14:31:22.102Z,24.10
2019-05-26T14:47:03.760Z,24.50
2019-05-26T14:51:12.329Z,24.60
2019-05-26T14:55:22.068Z,24.60
2019-05-26T14:59:30.554Z,24.70
2019-05-26T15:03:41.042Z,24.70
2019-05-26T15:07:51.032Z,24.70
2019-05-26T15:12:00.217Z,24.60
2019-05-26T15:16:10.470Z,24.40
2019-05-26T15:20:19.411Z,24.30
2019-05-26T15:24:30.426Z,24.10
2019-05-26T15:28:38.961Z,23.90
2019-05-26T15:32:49.172Z,23.80
2019-05-26T15:36:57.686Z,23.80
2019-05-26T15:41:08.272Z,23.80
2019-05-26T15:45:18.995Z,23.80
2019-05-26T15:49:27.992Z,23.60
2019-05-26T15:53:35.972Z,23.50
2019-05-26T15:57:44.327Z,23.40
2019-05-26T16:01:54.806Z,23.30
2019-05-26T16:06:03.700Z,23.30
2019-05-26T16:10:12.507Z,23.30
2019-05-26T16:14:21.053Z,23.30
2019-05-26T16:18:29.976Z,23.30
2019-05-26T16:22:38.994Z,23.40
2019-05-26T16:26:48.141Z,23.40
2019-05-26T16:30:58.117Z,23.40
2019-05-26T16:35:07.785Z,23.40
2019-05-26T16:39:16.495Z,23.30
2019-05-26T16:43:27.497Z,23.20
2019-05-26T16:47:36.520Z,23.20
2019-05-26T16:51:45.452Z,23.10
2019-05-26T16:55:54.148Z,23.00
2019-05-26T17:00:04.722Z,22.80
2019-05-26T17:04:13.798Z,22.60
2019-05-26T17:08:23.839Z,22.60
2019-05-26T17:12:32.465Z,22.50
2019-05-26T17:16:40.972Z,22.50
2019-05-26T17:20:52.550Z,22.30
2019-05-26T17:25:02.113Z,22.20
2019-05-26T17:29:10.667Z,22.00
2019-05-26T17:33:20.014Z,21.80
2019-05-26T17:37:28.525Z,21.70
2019-05-26T17:41:37.244Z,21.60
2019-05-26T17:45:46.670Z,21.60
2019-05-26T17:49:55.408Z,21.50
2019-05-26T17:54:04.199Z,21.40
2019-05-26T17:58:12.799Z,21.40
2019-05-26T18:02:22.562Z,21.30
2019-05-26T18:06:31.267Z,21.30
2019-05-26T18:10:39.818Z,21.20
2019-05-26T18:14:48.676Z,21.20
2019-05-26T18:18:59.574Z,21.10
2019-05-26T18:23:08.252Z,21.00
2019-05-26T18:27:18.784Z,20.90
2019-05-26T18:31:29.056Z,20.70
2019-05-26T18:35:38.430Z,20.60
2019-05-26T18:39:49.292Z,20.50
2019-05-26T18:43:58.799Z,20.30
2019-05-26T18:48:09.330Z,20.30
2019-05-26T18:52:18.487Z,20.20
2019-05-26T18:56:27.473Z,20.10
2019-05-26T19:00:36.245Z,20.10
2019-05-26T19:04:46.047Z,20.00
2019-05-26T19:08:53.738Z,19.90
2019-05-26T19:13:03.388Z,19.90
2019-05-26T19:17:12.244Z,19.80
2019-05-26T19:21:22.871Z,19.80
2019-05-26T19:25:31.668Z,19.70
2019-05-26T19:29:40.330Z,19.60
2019-05-26T19:33:49.476Z,19.60
2019-05-26T19:37:58.655Z,19.50
2019-05-26T19:42:07.796Z,19.50
2019-05-26T19:46:18.157Z,19.40
2019-05-26T19:50:28.321Z,19.40
2019-05-26T19:54:37.573Z,19.40
2019-05-26T19:58:47.105Z,19.30
2019-05-26T20:02:56.254Z,19.30
2019-05-26T20:07:05.139Z,19.20
2019-05-26T20:11:15.672Z,19.10
2019-05-26T20:15:26.449Z,19.00
2019-05-26T20:19:37.361Z,19.00
2019-05-26T20:23:46.241Z,18.90
2019-05-26T20:27:55.026Z,18.80
2019-05-26T20:32:04.984Z,18.80
2019-05-26T20:36:13.605Z,18.80
2019-05-26T20:40:22.543Z,18.80
2019-05-26T20:44:33.911Z,18.80
2019-05-26T20:48:42.329Z,18.80
2019-05-26T20:52:55.773Z,18.80
2019-05-26T20:57:05.512Z,18.80
2019-05-26T21:01:14.234Z,18.70
2019-05-26T21:05:23.419Z,18.70
2019-05-26T21:09:32.292Z,18.70
2019-05-26T21:13:41.089Z,18.70
2019-05-26T21:17:49.966Z,18.70
2019-05-26T21:21:58.619Z,18.70
2019-05-26T21:26:07.632Z,18.60
2019-05-26T21:30:18.311Z,18.60
2019-05-26T21:34:27.092Z,18.60
2019-05-26T21:38:35.640Z,18.60
2019-05-26T21:42:45.503Z,18.60
2019-05-26T21:46:54.327Z,18.60
2019-05-26T21:51:03.078Z,18.60
2019-05-26T21:55:13.628Z,18.60
2019-05-26T21:59:22.784Z,18.60
2019-05-26T22:03:31.749Z,18.60
2019-05-26T22:07:40.431Z,18.60
2019-05-26T22:11:48.889Z,18.60
2019-05-26T22:15:57.680Z,18.70
2019-05-26T22:20:06.721Z,18.60
2019-05-26T22:24:15.224Z,18.70
2019-05-26T22:28:23.730Z,18.60
2019-05-26T22:32:32.867Z,18.60
2019-05-26T22:36:41.302Z,18.60
2019-05-26T22:40:50.056Z,18.50
2019-05-26T22:44:58.515Z,18.50
2019-05-26T22:49:06.952Z,18.50
2019-05-26T22:53:15.579Z,18.50
2019-05-26T22:57:24.487Z,18.50
2019-05-26T23:01:33.218Z,18.50
2019-05-26T23:05:41.783Z,18.50
2019-05-26T23:09:50.505Z,18.50
2019-05-26T23:13:59.162Z,18.40
2019-05-26T23:18:07.660Z,18.40
2019-05-26T23:22:16.103Z,18.40
2019-05-26T23:26:24.708Z,18.40
2019-05-26T23:30:33.310Z,18.40
2019-05-26T23:34:41.883Z,18.40
2019-05-26T23:38:50.791Z,18.40
2019-05-26T23:42:59.205Z,18.40
2019-05-26T23:47:07.620Z,18.40
2019-05-26T23:51:16.141Z,18.40
2019-05-26T23:55:24.560Z,18.40
2019-05-26T23:59:33.546Z,18.40
